createdAt,value
2018-04-13T00:00:03.147Z,7.79
2018-04-13T00:01:03.078Z,7.91
2018-04-13T00:02:03.197Z,7.88
2018-04-13T00:03:03.070Z,7.91
2018-04-13T00:04:03.079Z,7.81
2018-04-13T00:05:03.140Z,7.69
2018-04-13T00:06:03.136Z,7.65
2018-04-13T00:07:03.107Z,7.62
2018-04-13T00:08:03.194Z,7.73
2018-04-13T00:09:03.096Z,7.72
2018-04-13T00:10:03.079Z,7.8
2018-04-13T00:11:03.060Z,7.71
2018-04-13T00:12:03.254Z,7.74
2018-04-13T00:13:03.075Z,7.7
2018-04-13T00:14:03.063Z,7.7
2018-04-13T00:15:03.072Z,7.73
2018-04-13T00:16:03.067Z,7.72
2018-04-13T00:17:03.091Z,7.68
2018-04-13T00:18:03.134Z,7.66
2018-04-13T00:19:03.049Z,7.55
2018-04-13T00:20:03.064Z,7.58
2018-04-13T00:21:03.047Z,7.58
2018-04-13T00:22:03.095Z,7.59
2018-04-13T00:23:03.065Z,7.53
2018-04-13T00:24:03.078Z,7.56
2018-04-13T00:25:03.083Z,7.83
2018-04-13T00:26:03.041Z,7.8
2018-04-13T00:27:03.096Z,7.67
2018-04-13T00:28:03.059Z,7.74
2018-04-13T00:29:03.035Z,7.67
2018-04-13T00:30:03.024Z,7.64
2018-04-13T00:31:03.057Z,7.76
2018-04-13T00:32:03.070Z,7.7
2018-04-13T00:33:03.027Z,7.57
2018-04-13T00:34:03.025Z,7.77
2018-04-13T00:35:03.036Z,7.73
2018-04-13T00:36:03.045Z,7.74
2018-04-13T00:37:03.059Z,7.72
2018-04-13T00:38:03.043Z,7.7
2018-04-13T00:39:03.020Z,7.57
2018-04-13T00:40:03.018Z,7.65
2018-04-13T00:41:03.073Z,7.69
2018-04-13T00:42:03.201Z,7.54
2018-04-13T00:43:03.019Z,7.72
2018-04-13T00:44:03.046Z,7.69
2018-04-13T00:45:03.031Z,7.48
2018-04-13T00:46:03.021Z,7.56
2018-04-13T00:47:03.149Z,7.51
2018-04-13T00:48:03.029Z,7.62
2018-04-13T00:49:03.050Z,7.52
2018-04-13T00:50:03.045Z,7.65
2018-04-13T00:51:03.011Z,7.47
2018-04-13T00:52:03.041Z,7.46
2018-04-13T00:53:03.007Z,7.6
2018-04-13T00:54:03.017Z,7.38
2018-04-13T00:55:03.039Z,7.3
2018-04-13T00:56:03.041Z,7.35
2018-04-13T00:57:03.108Z,7.53
2018-04-13T00:58:03.016Z,7.39
2018-04-13T00:59:03.052Z,7.32
2018-04-13T01:00:03.009Z,7.44
2018-04-13T01:01:03.007Z,7.32
2018-04-13T01:02:03.083Z,7.38
2018-04-13T01:03:02.990Z,7.48
2018-04-13T01:04:03.262Z,7.47
2018-04-13T01:05:02.984Z,7.48
2018-04-13T01:06:02.979Z,7.43
2018-04-13T01:07:02.992Z,7.36
2018-04-13T01:08:03.025Z,7.52
2018-04-13T01:09:02.995Z,7.5
2018-04-13T01:10:02.976Z,7.53
2018-04-13T01:11:02.977Z,7.4
2018-04-13T01:12:02.987Z,7.39
2018-04-13T01:13:02.992Z,7.57
2018-04-13T01:14:03.054Z,7.65
2018-04-13T01:15:03.078Z,7.62
2018-04-13T01:16:02.975Z,7.57
2018-04-13T01:17:03.009Z,7.52
2018-04-13T01:18:02.954Z,7.47
2018-04-13T01:19:03.231Z,7.5
2018-04-13T01:20:02.964Z,7.43
2018-04-13T01:21:03.023Z,7.36
2018-04-13T01:22:03.015Z,7.38
2018-04-13T01:23:02.983Z,7.35
2018-04-13T01:24:02.993Z,7.49
2018-04-13T01:25:02.975Z,7.39
2018-04-13T01:26:02.987Z,7.5
2018-04-13T01:27:02.989Z,7.31
2018-04-13T01:28:03.010Z,7.38
2018-04-13T01:29:02.925Z,7.21
2018-04-13T01:30:02.982Z,7.25
2018-04-13T01:31:02.952Z,7.31
2018-04-13T01:32:02.944Z,7.22
2018-04-13T01:33:02.960Z,7.32
2018-04-13T01:34:02.961Z,7.31
2018-04-13T01:35:02.966Z,7.39
2018-04-13T01:36:02.935Z,7.4
2018-04-13T01:37:03.077Z,7.47
2018-04-13T01:38:02.950Z,7.32
2018-04-13T01:39:02.992Z,7.39
2018-04-13T01:40:02.985Z,7.29
2018-04-13T01:41:02.930Z,7.42
2018-04-13T01:42:02.959Z,7.29
2018-04-13T01:43:02.929Z,7.17
2018-04-13T01:44:02.933Z,7.23
2018-04-13T01:45:02.979Z,7.25
2018-04-13T01:46:02.943Z,7.52
2018-04-13T01:47:02.980Z,7.47
2018-04-13T01:48:02.929Z,7.46
2018-04-13T01:49:02.941Z,7.45
2018-04-13T01:50:02.988Z,7.41
2018-04-13T01:51:02.958Z,7.41
2018-04-13T01:52:02.938Z,7.34
2018-04-13T01:53:02.931Z,7.34
2018-04-13T01:54:02.913Z,7.25
2018-04-13T01:55:02.993Z,7.27
2018-04-13T01:56:02.916Z,7.19
2018-04-13T01:57:02.901Z,7.2
2018-04-13T01:58:02.966Z,7.06
2018-04-13T01:59:02.921Z,7.34
2018-04-13T02:00:03.012Z,7.15
2018-04-13T02:01:02.913Z,7.1
2018-04-13T02:02:02.924Z,7.33
2018-04-13T02:03:02.991Z,7.2
2018-04-13T02:04:02.894Z,7.22
2018-04-13T02:05:03.014Z,7.2
2018-04-13T02:06:02.891Z,7.15
2018-04-13T02:07:02.903Z,7.27
2018-04-13T02:08:02.970Z,7.3
2018-04-13T02:09:02.902Z,7.19
2018-04-13T02:10:02.920Z,7.17
2018-04-13T02:11:02.930Z,7.17
2018-04-13T02:12:02.915Z,7.19
2018-04-13T02:13:02.880Z,7.22
2018-04-13T02:14:03.029Z,7.01
2018-04-13T02:15:02.897Z,7.06
2018-04-13T02:16:02.887Z,7
2018-04-13T02:17:02.897Z,7.02
2018-04-13T02:18:02.872Z,7.03
2018-04-13T02:19:02.877Z,7.29
2018-04-13T02:20:02.886Z,7.26
2018-04-13T02:21:02.874Z,7.23
2018-04-13T02:22:02.884Z,7.18
2018-04-13T02:23:02.877Z,7.18
2018-04-13T02:24:02.984Z,7.21
2018-04-13T02:25:03.006Z,7.24
2018-04-13T02:26:03.215Z,7.23
2018-04-13T02:27:02.874Z,7.14
2018-04-13T02:28:02.865Z,6.93
2018-04-13T02:29:02.906Z,6.97
2018-04-13T02:30:02.869Z,7.23
2018-04-13T02:31:02.879Z,7.26
2018-04-13T02:32:02.861Z,7.13
2018-04-13T02:33:02.892Z,7.1
2018-04-13T02:34:03.043Z,7.09
2018-04-13T02:35:02.883Z,7.22
2018-04-13T02:36:02.877Z,7.25
2018-04-13T02:37:02.868Z,7.21
2018-04-13T02:38:02.886Z,7.19
2018-04-13T02:39:02.885Z,7.25
2018-04-13T02:40:02.873Z,7.25
2018-04-13T02:41:02.884Z,7.17
2018-04-13T02:42:02.871Z,7.14
2018-04-13T02:43:02.849Z,7
2018-04-13T02:44:02.864Z,7.01
2018-04-13T02:45:02.836Z,6.92
2018-04-13T02:46:02.848Z,6.93
2018-04-13T02:47:02.826Z,6.97
2018-04-13T02:48:02.851Z,6.91
2018-04-13T02:49:02.860Z,7.01
2018-04-13T02:50:02.872Z,7.1
2018-04-13T02:51:02.821Z,7.05
2018-04-13T02:52:02.834Z,6.99
2018-04-13T02:53:02.832Z,6.96
2018-04-13T02:54:02.856Z,6.92
2018-04-13T02:55:02.825Z,6.96
2018-04-13T02:56:02.807Z,6.89
2018-04-13T02:57:02.841Z,6.97
2018-04-13T02:58:02.818Z,7.01
2018-04-13T02:59:03.066Z,7.02
2018-04-13T03:00:02.825Z,6.95
2018-04-13T03:01:02.829Z,6.87
2018-04-13T03:02:02.809Z,7.01
2018-04-13T03:03:02.823Z,6.92
2018-04-13T03:04:02.831Z,6.95
2018-04-13T03:05:02.829Z,6.84
2018-04-13T03:06:02.811Z,6.9
2018-04-13T03:07:02.787Z,6.77
2018-04-13T03:08:02.809Z,6.83
2018-04-13T03:09:02.838Z,6.8
2018-04-13T03:10:02.802Z,6.78
2018-04-13T03:11:02.796Z,6.71
2018-04-13T03:12:02.808Z,6.79
2018-04-13T03:13:02.822Z,6.78
2018-04-13T03:14:02.839Z,6.7
2018-04-13T03:15:02.784Z,6.62
2018-04-13T03:16:02.780Z,6.66
2018-04-13T03:17:02.799Z,6.69
2018-04-13T03:18:02.790Z,6.56
2018-04-13T03:19:02.824Z,6.66
2018-04-13T03:20:02.790Z,6.53
2018-04-13T03:21:02.774Z,6.47
2018-04-13T03:22:02.773Z,6.74
2018-04-13T03:23:02.766Z,6.76
2018-04-13T03:24:02.795Z,6.75
2018-04-13T03:25:02.800Z,6.65
2018-04-13T03:26:02.862Z,6.67
2018-04-13T03:27:02.791Z,6.6
2018-04-13T03:28:02.779Z,6.69
2018-04-13T03:29:02.801Z,6.63
2018-04-13T03:30:02.818Z,6.77
2018-04-13T03:31:02.799Z,6.68
2018-04-13T03:32:02.872Z,6.7
2018-04-13T03:33:02.787Z,6.7
2018-04-13T03:34:02.940Z,6.57
2018-04-13T03:35:02.789Z,6.73
2018-04-13T03:36:02.796Z,6.52
2018-04-13T03:37:02.770Z,6.86
2018-04-13T03:38:02.784Z,6.71
2018-04-13T03:39:02.891Z,6.81
2018-04-13T03:40:02.760Z,6.69
2018-04-13T03:41:02.756Z,6.72
2018-04-13T03:42:02.765Z,6.82
2018-04-13T03:43:02.812Z,6.83
2018-04-13T03:44:02.756Z,6.89
2018-04-13T03:45:02.752Z,6.79
2018-04-13T03:46:02.746Z,6.73
2018-04-13T03:47:02.782Z,6.6
2018-04-13T03:48:02.737Z,6.58
2018-04-13T03:49:02.737Z,6.51
2018-04-13T03:50:02.801Z,6.78
2018-04-13T03:51:02.739Z,6.68
2018-04-13T03:52:02.733Z,6.62
2018-04-13T03:53:02.787Z,6.77
2018-04-13T03:54:02.773Z,6.72
2018-04-13T03:55:02.749Z,6.74
2018-04-13T03:56:02.730Z,6.77
2018-04-13T03:57:02.792Z,6.76
2018-04-13T03:58:02.731Z,6.77
2018-04-13T03:59:02.831Z,6.76
2018-04-13T04:00:02.763Z,6.81
2018-04-13T04:01:02.707Z,6.82
2018-04-13T04:02:02.890Z,6.83
2018-04-13T04:03:02.715Z,6.75
2018-04-13T04:04:02.840Z,6.63
2018-04-13T04:05:02.735Z,6.54
2018-04-13T04:06:02.735Z,6.61
2018-04-13T04:07:02.690Z,6.65
2018-04-13T04:08:02.717Z,6.65
2018-04-13T04:09:02.755Z,6.61
2018-04-13T04:10:02.744Z,6.75
2018-04-13T04:11:02.998Z,6.56
2018-04-13T04:12:02.708Z,6.61
2018-04-13T04:13:02.716Z,6.68
2018-04-13T04:14:02.682Z,6.5
2018-04-13T04:15:02.722Z,6.52
2018-04-13T04:16:02.766Z,6.67
2018-04-13T04:17:02.750Z,6.68
2018-04-13T04:18:02.808Z,6.6
2018-04-13T04:19:02.693Z,6.5
2018-04-13T04:20:02.701Z,6.51
2018-04-13T04:21:02.829Z,6.72
2018-04-13T04:22:02.825Z,6.67
2018-04-13T04:23:02.695Z,6.72
2018-04-13T04:24:02.717Z,6.61
2018-04-13T04:25:02.709Z,6.63
2018-04-13T04:26:02.719Z,6.72
2018-04-13T04:27:02.712Z,6.64
2018-04-13T04:28:03.029Z,6.54
2018-04-13T04:29:02.679Z,6.52
2018-04-13T04:30:02.737Z,6.64
2018-04-13T04:31:02.673Z,6.77
2018-04-13T04:32:02.691Z,6.75
2018-04-13T04:33:02.693Z,6.69
2018-04-13T04:34:02.704Z,6.6
2018-04-13T04:35:02.702Z,6.77
2018-04-13T04:36:02.664Z,6.78
2018-04-13T04:37:02.675Z,6.68
2018-04-13T04:38:02.707Z,6.61
2018-04-13T04:39:02.644Z,6.76
2018-04-13T04:40:02.685Z,6.66
2018-04-13T04:41:02.666Z,6.6
2018-04-13T04:42:02.650Z,6.58
2018-04-13T04:43:02.685Z,6.63
2018-04-13T04:44:02.693Z,6.86
2018-04-13T04:45:02.771Z,6.76
2018-04-13T04:46:02.646Z,6.64
2018-04-13T04:47:02.645Z,6.8
2018-04-13T04:48:02.695Z,6.75
2018-04-13T04:49:02.630Z,6.7
2018-04-13T04:50:02.740Z,6.85
2018-04-13T04:51:02.627Z,6.71
2018-04-13T04:52:02.628Z,6.69
2018-04-13T04:53:02.679Z,6.63
2018-04-13T04:54:02.635Z,6.72
2018-04-13T04:55:02.643Z,6.76
2018-04-13T04:56:02.646Z,6.82
2018-04-13T04:57:02.635Z,6.65
2018-04-13T04:58:02.724Z,6.63
2018-04-13T04:59:02.624Z,6.62
2018-04-13T05:00:02.759Z,6.69
2018-04-13T05:01:02.625Z,6.64
2018-04-13T05:02:02.624Z,6.68
2018-04-13T05:03:02.657Z,6.71
2018-04-13T05:04:02.633Z,6.58
2018-04-13T05:05:02.656Z,6.67
2018-04-13T05:06:02.627Z,6.61
2018-04-13T05:07:02.651Z,6.71
2018-04-13T05:08:02.791Z,6.59
2018-04-13T05:09:02.630Z,6.71
2018-04-13T05:10:02.731Z,6.67
2018-04-13T05:11:02.610Z,6.79
2018-04-13T05:12:02.867Z,6.88
2018-04-13T05:13:02.633Z,6.67
2018-04-13T05:14:02.609Z,6.7
2018-04-13T05:15:02.632Z,6.63
2018-04-13T05:16:02.716Z,6.7
2018-04-13T05:17:02.619Z,6.77
2018-04-13T05:18:02.606Z,6.61
2018-04-13T05:19:02.606Z,6.6
2018-04-13T05:20:02.628Z,6.98
2018-04-13T05:21:02.671Z,6.77
2018-04-13T05:22:02.633Z,6.99
2018-04-13T05:23:02.603Z,6.89
2018-04-13T05:24:02.745Z,6.89
2018-04-13T05:25:02.698Z,6.87
2018-04-13T05:26:02.596Z,6.88
2018-04-13T05:27:02.587Z,6.86
2018-04-13T05:28:02.603Z,7
2018-04-13T05:29:02.617Z,6.86
2018-04-13T05:30:02.604Z,6.95
2018-04-13T05:31:02.694Z,6.93
2018-04-13T05:32:02.651Z,6.9
2018-04-13T05:33:02.579Z,7.04
2018-04-13T05:34:02.591Z,6.9
2018-04-13T05:35:02.591Z,6.8
2018-04-13T05:36:02.572Z,7.04
2018-04-13T05:37:02.626Z,6.89
2018-04-13T05:38:02.565Z,6.9
2018-04-13T05:39:02.569Z,6.84
2018-04-13T05:40:02.659Z,6.86
2018-04-13T05:41:02.695Z,6.93
2018-04-13T05:42:02.640Z,6.98
2018-04-13T05:43:02.583Z,6.86
2018-04-13T05:44:02.558Z,6.89
2018-04-13T05:45:02.554Z,7.05
2018-04-13T05:46:02.796Z,6.87
2018-04-13T05:47:02.557Z,7.01
2018-04-13T05:48:02.597Z,6.86
2018-04-13T05:49:02.551Z,6.83
2018-04-13T05:50:02.546Z,6.99
2018-04-13T05:51:02.566Z,7
2018-04-13T05:52:02.554Z,6.91
2018-04-13T05:53:02.578Z,6.84
2018-04-13T05:54:02.546Z,6.91
2018-04-13T05:55:02.543Z,6.93
2018-04-13T05:56:02.535Z,6.92
2018-04-13T05:57:02.569Z,6.96
2018-04-13T05:58:02.754Z,7.11
2018-04-13T05:59:02.538Z,7.14
2018-04-13T06:00:02.554Z,7.03
2018-04-13T06:01:02.540Z,7.09
2018-04-13T06:02:02.545Z,7.01
2018-04-13T06:03:02.548Z,6.94
2018-04-13T06:04:02.578Z,6.96
2018-04-13T06:05:02.649Z,6.82
2018-04-13T06:06:02.806Z,6.94
2018-04-13T06:07:02.522Z,7.2
2018-04-13T06:08:02.535Z,7.21
2018-04-13T06:09:02.534Z,7.23
2018-04-13T06:10:02.646Z,7.17
2018-04-13T06:11:02.519Z,7.22
2018-04-13T06:12:02.515Z,7.17
2018-04-13T06:13:02.548Z,7.35
2018-04-13T06:14:02.515Z,7.19
2018-04-13T06:15:02.510Z,7.18
2018-04-13T06:16:02.514Z,7.17
2018-04-13T06:17:02.503Z,7.17
2018-04-13T06:18:02.550Z,7.15
2018-04-13T06:19:02.641Z,7.14
2018-04-13T06:20:02.522Z,7.27
2018-04-13T06:21:02.517Z,7.32
2018-04-13T06:22:02.509Z,7.19
2018-04-13T06:23:02.495Z,7.21
2018-04-13T06:24:02.492Z,7.29
2018-04-13T06:25:02.574Z,7.28
2018-04-13T06:26:02.514Z,7.33
2018-04-13T06:27:02.503Z,7.19
2018-04-13T06:28:02.811Z,7.42
2018-04-13T06:29:02.533Z,7.26
2018-04-13T06:30:02.502Z,7.36
2018-04-13T06:31:02.482Z,7.38
2018-04-13T06:32:02.499Z,7.41
2018-04-13T06:33:02.525Z,7.35
2018-04-13T06:34:02.496Z,7.38
2018-04-13T06:35:02.553Z,7.3
2018-04-13T06:36:02.497Z,7.31
2018-04-13T06:37:02.507Z,7.25
2018-04-13T06:38:02.507Z,7.54
2018-04-13T06:39:02.494Z,7.34
2018-04-13T06:40:02.508Z,7.32
2018-04-13T06:41:02.479Z,7.39
2018-04-13T06:42:02.590Z,7.42
2018-04-13T06:43:02.557Z,7.29
2018-04-13T06:44:02.539Z,7.28
2018-04-13T06:45:02.493Z,7.3
2018-04-13T06:46:02.529Z,7.4
2018-04-13T06:47:02.496Z,7.55
2018-04-13T06:48:02.487Z,7.44
2018-04-13T06:49:02.478Z,7.61
2018-04-13T06:50:02.461Z,7.6
2018-04-13T06:51:02.481Z,7.64
2018-04-13T06:52:02.464Z,7.49
2018-04-13T06:53:02.470Z,7.55
2018-04-13T06:54:02.444Z,7.61
2018-04-13T06:55:02.456Z,7.65
2018-04-13T06:56:02.455Z,7.52
2018-04-13T06:57:02.473Z,7.49
2018-04-13T06:58:02.509Z,7.62
2018-04-13T06:59:02.459Z,7.52
2018-04-13T07:00:02.489Z,7.44
2018-04-13T07:01:02.546Z,7.61
2018-04-13T07:02:02.452Z,7.66
2018-04-13T07:03:02.483Z,7.7
2018-04-13T07:04:02.487Z,7.69
2018-04-13T07:05:02.486Z,7.66
2018-04-13T07:06:02.494Z,7.8
2018-04-13T07:07:02.479Z,7.78
2018-04-13T07:08:02.535Z,7.8
2018-04-13T07:09:02.452Z,7.73
2018-04-13T07:10:02.448Z,7.78
2018-04-13T07:11:02.468Z,7.76
2018-04-13T07:12:02.486Z,7.92
2018-04-13T07:13:02.449Z,7.66
2018-04-13T07:14:02.445Z,7.82
2018-04-13T07:15:02.452Z,7.83
2018-04-13T07:16:02.448Z,7.96
2018-04-13T07:17:02.470Z,8
2018-04-13T07:18:02.474Z,8.01
2018-04-13T07:19:02.516Z,7.96
2018-04-13T07:20:02.435Z,8.18
2018-04-13T07:21:02.464Z,8.12
2018-04-13T07:22:02.555Z,8.26
2018-04-13T07:23:02.433Z,8.25
2018-04-13T07:24:02.430Z,8.16
2018-04-13T07:25:02.864Z,8.14
2018-04-13T07:26:02.402Z,8.26
2018-04-13T07:27:02.450Z,8.21
2018-04-13T07:28:02.452Z,8.18
2018-04-13T07:29:02.420Z,8.26
2018-04-13T07:30:02.481Z,8.19
2018-04-13T07:31:02.428Z,8.43
2018-04-13T07:32:02.417Z,8.39
2018-04-13T07:33:02.450Z,8.43
2018-04-13T07:34:02.420Z,8.45
2018-04-13T07:35:02.417Z,8.52
2018-04-13T07:36:02.433Z,8.46
2018-04-13T07:37:02.421Z,8.62
2018-04-13T07:38:02.507Z,8.69
2018-04-13T07:39:02.525Z,8.59
2018-04-13T07:40:02.542Z,8.6
2018-04-13T07:41:02.415Z,8.68
2018-04-13T07:42:02.426Z,8.74
2018-04-13T07:43:02.401Z,8.71
2018-04-13T07:44:02.456Z,8.81
2018-04-13T07:45:03.053Z,8.69
2018-04-13T07:46:02.772Z,8.69
2018-04-13T07:47:02.536Z,8.7
2018-04-13T07:48:02.481Z,8.71
2018-04-13T07:49:02.387Z,8.79
2018-04-13T07:50:02.437Z,8.96
2018-04-13T07:51:02.423Z,8.67
2018-04-13T07:52:02.431Z,8.79
2018-04-13T07:53:02.377Z,9.11
2018-04-13T07:54:02.389Z,9.17
2018-04-13T07:55:02.382Z,9.17
2018-04-13T07:56:02.385Z,9.24
2018-04-13T07:57:02.402Z,9.32
2018-04-13T07:58:03.883Z,9.69
2018-04-13T07:59:02.487Z,9.6
2018-04-13T08:00:02.374Z,9.37
2018-04-13T08:01:02.776Z,9.28
2018-04-13T08:02:02.391Z,9.24
2018-04-13T08:03:02.367Z,9.29
2018-04-13T08:04:02.351Z,9.16
2018-04-13T08:05:03.471Z,9.28
2018-04-13T08:06:02.395Z,9.3
2018-04-13T08:07:02.370Z,9.41
2018-04-13T08:08:02.356Z,9.21
2018-04-13T08:09:02.544Z,9.3
2018-04-13T08:10:02.356Z,9.29
2018-04-13T08:11:02.351Z,9.33
2018-04-13T08:12:02.387Z,9.3
2018-04-13T08:13:04.084Z,9.21
2018-04-13T08:14:02.798Z,9.2
2018-04-13T08:15:02.483Z,9.46
2018-04-13T08:16:02.452Z,9.42
2018-04-13T08:17:02.372Z,9.43
2018-04-13T08:18:02.580Z,9.38
2018-04-13T08:19:02.329Z,9.31
2018-04-13T08:20:02.349Z,9.34
2018-04-13T08:21:02.325Z,9.42
2018-04-13T08:22:02.595Z,9.38
2018-04-13T08:23:02.335Z,9.37
2018-04-13T08:24:02.414Z,9.44
2018-04-13T08:25:02.411Z,9.55
2018-04-13T08:26:02.326Z,9.48
2018-04-13T08:27:02.371Z,9.56
2018-04-13T08:28:02.445Z,9.54
2018-04-13T08:29:02.321Z,9.4
2018-04-13T08:30:02.478Z,9.38
2018-04-13T08:31:02.316Z,9.49
2018-04-13T08:32:02.450Z,9.37
2018-04-13T08:33:02.321Z,9.53
2018-04-13T08:34:02.368Z,9.28
2018-04-13T08:35:02.421Z,9.24
2018-04-13T08:36:02.364Z,9.2
2018-04-13T08:37:03.930Z,9.33
2018-04-13T08:38:02.407Z,9.32
2018-04-13T08:39:02.337Z,9.27
2018-04-13T08:40:02.318Z,9.2
2018-04-13T08:41:02.406Z,9.18
2018-04-13T08:42:02.302Z,9.09
2018-04-13T08:43:02.404Z,9.15
2018-04-13T08:44:02.308Z,9.08
2018-04-13T08:45:02.309Z,9.11
2018-04-13T08:46:02.343Z,9.17
2018-04-13T08:47:02.322Z,9.17
2018-04-13T08:48:02.318Z,9.13
2018-04-13T08:49:03.572Z,9.11
2018-04-13T08:50:02.491Z,9.08
2018-04-13T08:51:02.368Z,9.07
2018-04-13T08:52:02.291Z,9.06
2018-04-13T08:53:02.331Z,8.99
2018-04-13T08:54:02.502Z,8.82
2018-04-13T08:55:02.294Z,9.07
2018-04-13T08:56:02.298Z,8.99
2018-04-13T08:57:02.286Z,9.03
2018-04-13T08:58:02.343Z,9.09
2018-04-13T08:59:02.293Z,9.02
2018-04-13T09:00:02.309Z,9.05
2018-04-13T09:01:02.630Z,8.88
2018-04-13T09:02:02.658Z,8.92
2018-04-13T09:03:02.293Z,9
2018-04-13T09:04:02.287Z,9.06
2018-04-13T09:05:02.276Z,9.04
2018-04-13T09:06:02.257Z,9.05
2018-04-13T09:07:02.300Z,9.08
2018-04-13T09:08:02.301Z,9.08
2018-04-13T09:09:02.242Z,8.94
2018-04-13T09:10:02.264Z,8.94
2018-04-13T09:11:02.296Z,9.05
2018-04-13T09:12:02.287Z,9.08
2018-04-13T09:13:02.538Z,9.03
2018-04-13T09:14:02.333Z,8.93
2018-04-13T09:15:02.258Z,9.08
2018-04-13T09:16:02.243Z,9.19
2018-04-13T09:17:02.293Z,9.16
2018-04-13T09:18:02.540Z,9.09
2018-04-13T09:19:02.245Z,9.14
2018-04-13T09:20:02.409Z,9.19
2018-04-13T09:21:02.250Z,9.1
2018-04-13T09:22:02.268Z,9.16
2018-04-13T09:23:02.259Z,9.18
2018-04-13T09:24:02.281Z,9.14
2018-04-13T09:25:02.287Z,9.09
2018-04-13T09:26:02.288Z,9.03
2018-04-13T09:27:02.291Z,9.01
2018-04-13T09:28:02.391Z,9.08
2018-04-13T09:29:02.224Z,9.04
2018-04-13T09:30:02.268Z,9
2018-04-13T09:31:02.206Z,9.06
2018-04-13T09:32:02.266Z,9.02
2018-04-13T09:33:02.262Z,9.11
2018-04-13T09:34:02.213Z,9.12
2018-04-13T09:35:02.223Z,8.92
2018-04-13T09:36:02.370Z,9.08
2018-04-13T09:37:02.255Z,8.98
2018-04-13T09:38:02.315Z,8.95
2018-04-13T09:39:02.213Z,8.93
2018-04-13T09:40:02.222Z,8.92
2018-04-13T09:41:02.245Z,8.79
2018-04-13T09:42:02.215Z,8.91
2018-04-13T09:43:02.266Z,8.87
2018-04-13T09:44:02.189Z,8.91
2018-04-13T09:45:02.193Z,8.86
2018-04-13T09:46:02.245Z,8.94
2018-04-13T09:47:02.402Z,9.07
2018-04-13T09:48:02.224Z,9
2018-04-13T09:49:02.210Z,9
2018-04-13T09:50:03.203Z,8.95
2018-04-13T09:51:02.345Z,8.97
2018-04-13T09:52:02.189Z,8.89
2018-04-13T09:53:02.204Z,8.78
2018-04-13T09:54:02.180Z,8.8
2018-04-13T09:55:02.181Z,8.63
2018-04-13T09:56:02.381Z,8.74
2018-04-13T09:57:02.187Z,8.6
2018-04-13T09:58:02.196Z,8.61
2018-04-13T09:59:02.202Z,8.62
2018-04-13T10:00:02.165Z,8.62
2018-04-13T10:01:02.192Z,8.65
2018-04-13T10:02:02.164Z,8.59
2018-04-13T10:03:02.162Z,8.53
2018-04-13T10:04:02.198Z,8.59
2018-04-13T10:05:02.148Z,8.67
2018-04-13T10:06:02.165Z,8.71
2018-04-13T10:07:02.156Z,8.57
2018-04-13T10:08:02.399Z,8.66
2018-04-13T10:09:02.162Z,8.53
2018-04-13T10:10:02.165Z,8.61
2018-04-13T10:11:02.161Z,8.62
2018-04-13T10:12:02.193Z,8.47
2018-04-13T10:13:02.166Z,8.5
2018-04-13T10:14:02.140Z,8.64
2018-04-13T10:15:02.152Z,8.59
2018-04-13T10:16:02.147Z,8.62
2018-04-13T10:17:02.160Z,8.58
2018-04-13T10:18:02.147Z,8.58
2018-04-13T10:19:02.141Z,8.56
2018-04-13T10:20:02.151Z,8.52
2018-04-13T10:21:02.140Z,8.64
2018-04-13T10:22:02.155Z,8.56
2018-04-13T10:23:02.154Z,8.55
2018-04-13T10:24:02.164Z,8.59
2018-04-13T10:25:02.235Z,8.59
2018-04-13T10:26:02.260Z,8.65
2018-04-13T10:27:02.170Z,8.73
2018-04-13T10:28:02.175Z,8.65
2018-04-13T10:29:02.240Z,8.72
2018-04-13T10:30:02.156Z,8.54
2018-04-13T10:31:02.124Z,8.73
2018-04-13T10:32:02.147Z,8.9
2018-04-13T10:33:02.129Z,8.78
2018-04-13T10:34:02.222Z,8.85
2018-04-13T10:35:02.136Z,8.87
2018-04-13T10:36:02.136Z,8.98
2018-04-13T10:37:02.145Z,8.75
2018-04-13T10:38:02.158Z,8.82
2018-04-13T10:39:02.143Z,8.8
2018-04-13T10:40:02.149Z,8.79
2018-04-13T10:41:02.117Z,8.76
2018-04-13T10:42:02.142Z,8.78
2018-04-13T10:43:02.117Z,8.73
2018-04-13T10:44:02.193Z,8.89
2018-04-13T10:45:02.178Z,8.94
2018-04-13T10:46:02.137Z,8.84
2018-04-13T10:47:02.118Z,8.87
2018-04-13T10:48:02.132Z,8.87
2018-04-13T10:49:02.178Z,8.86
2018-04-13T10:50:02.131Z,9.01
2018-04-13T10:51:02.151Z,9.23
2018-04-13T10:52:02.127Z,8.95
2018-04-13T10:53:02.121Z,9.12
2018-04-13T10:54:02.122Z,9.13
2018-04-13T10:55:02.193Z,9.03
2018-04-13T10:56:02.103Z,9.2
2018-04-13T10:57:02.333Z,9.12
2018-04-13T10:58:02.206Z,9.3
2018-04-13T10:59:02.166Z,9.04
2018-04-13T11:00:02.108Z,9.11
2018-04-13T11:01:02.116Z,9.05
2018-04-13T11:02:02.085Z,9.17
2018-04-13T11:03:02.119Z,8.96
2018-04-13T11:04:02.077Z,8.98
2018-04-13T11:05:02.099Z,9.02
2018-04-13T11:06:02.135Z,9
2018-04-13T11:07:02.087Z,8.91
2018-04-13T11:08:02.080Z,9.03
2018-04-13T11:09:02.091Z,9.02
2018-04-13T11:10:02.101Z,9.2
2018-04-13T11:11:02.082Z,9.11
2018-04-13T11:12:02.109Z,9.18
2018-04-13T11:13:02.093Z,9.03
2018-04-13T11:14:02.428Z,9.02
2018-04-13T11:15:02.084Z,9.06
2018-04-13T11:16:02.070Z,9.09
2018-04-13T11:17:02.053Z,9.03
2018-04-13T11:18:02.093Z,8.96
2018-04-13T11:19:02.096Z,8.93
2018-04-13T11:20:02.087Z,9.04
2018-04-13T11:21:02.054Z,9.12
2018-04-13T11:22:02.049Z,8.97
2018-04-13T11:23:02.051Z,9.06
2018-04-13T11:24:02.029Z,9.01
2018-04-13T11:25:02.065Z,8.95
2018-04-13T11:26:02.093Z,9.02
2018-04-13T11:27:02.309Z,9.04
2018-04-13T11:28:02.087Z,9.16
2018-04-13T11:29:02.124Z,9.14
2018-04-13T11:30:02.244Z,8.97
2018-04-13T11:31:02.080Z,8.85
2018-04-13T11:32:02.149Z,8.92
2018-04-13T11:33:02.040Z,8.85
2018-04-13T11:34:02.019Z,8.94
2018-04-13T11:35:02.036Z,8.95
2018-04-13T11:36:02.025Z,8.85
2018-04-13T11:37:02.143Z,8.9
2018-04-13T11:38:02.055Z,8.97
2018-04-13T11:39:02.055Z,8.93
2018-04-13T11:40:02.018Z,9
2018-04-13T11:41:02.047Z,8.9
2018-04-13T11:42:02.043Z,8.88
2018-04-13T11:43:02.022Z,8.91
2018-04-13T11:44:02.032Z,8.88
2018-04-13T11:45:02.004Z,8.88
2018-04-13T11:46:01.998Z,8.97
2018-04-13T11:47:02.130Z,8.94
2018-04-13T11:48:02.014Z,8.94
2018-04-13T11:49:02.092Z,8.96
2018-04-13T11:50:02.213Z,8.91
2018-04-13T11:51:01.992Z,8.85
2018-04-13T11:52:02.067Z,8.87
2018-04-13T11:53:01.990Z,8.87
2018-04-13T11:54:02.024Z,8.95
2018-04-13T11:55:02.049Z,8.95
2018-04-13T11:56:02.030Z,8.99
2018-04-13T11:57:02.012Z,8.95
2018-04-13T11:58:01.990Z,8.88
2018-04-13T11:59:02.055Z,8.99
2018-04-13T12:00:02.084Z,8.87
2018-04-13T12:01:02.007Z,8.85
2018-04-13T12:02:02.020Z,8.9
2018-04-13T12:03:01.987Z,8.94
2018-04-13T12:04:02.032Z,8.95
2018-04-13T12:05:01.998Z,8.9
2018-04-13T12:06:02.028Z,8.85
2018-04-13T12:07:02.048Z,8.8
2018-04-13T12:08:01.986Z,8.88
2018-04-13T12:09:01.993Z,8.85
2018-04-13T12:10:01.963Z,8.95
2018-04-13T12:11:01.971Z,8.9
2018-04-13T12:12:01.965Z,8.89
2018-04-13T12:13:01.978Z,8.89
2018-04-13T12:14:01.962Z,8.83
2018-04-13T12:15:02.001Z,8.86
2018-04-13T12:16:02.012Z,8.95
2018-04-13T12:17:01.980Z,8.91
2018-04-13T12:18:01.992Z,8.91
2018-04-13T12:19:02.109Z,8.94
2018-04-13T12:20:01.967Z,8.98
2018-04-13T12:21:01.947Z,9
2018-04-13T12:22:01.947Z,8.83
2018-04-13T12:23:01.987Z,8.94
2018-04-13T12:24:01.965Z,9
2018-04-13T12:25:02.059Z,8.96
2018-04-13T12:26:01.967Z,9.06
2018-04-13T12:27:01.960Z,8.97
2018-04-13T12:28:01.957Z,9
2018-04-13T12:29:01.993Z,9.04
2018-04-13T12:30:01.997Z,9.06
2018-04-13T12:31:01.931Z,9.01
2018-04-13T12:32:02.065Z,9.05
2018-04-13T12:33:02.014Z,9.21
2018-04-13T12:34:01.966Z,9.12
2018-04-13T12:35:02.079Z,9.2
2018-04-13T12:36:01.986Z,9.15
2018-04-13T12:37:01.978Z,9.2
2018-04-13T12:38:01.984Z,9.17
2018-04-13T12:39:01.984Z,9.24
2018-04-13T12:40:01.901Z,9.2
2018-04-13T12:41:03.528Z,9.14
2018-04-13T12:42:02.014Z,9.21
2018-04-13T12:43:02.270Z,9.15
2018-04-13T12:44:01.967Z,9.23
2018-04-13T12:45:01.940Z,9.24
2018-04-13T12:46:01.915Z,9.24
2018-04-13T12:47:01.953Z,9.23
2018-04-13T12:48:01.899Z,9.17
2018-04-13T12:49:02.342Z,9.18
2018-04-13T12:50:03.983Z,9.21
2018-04-13T12:51:01.956Z,9.16
2018-04-13T12:52:02.552Z,9.25
2018-04-13T12:53:02.107Z,9.29
2018-04-13T12:54:02.165Z,9.22
2018-04-13T12:55:05.032Z,9.25
2018-04-13T12:56:02.392Z,9.3
2018-04-13T12:57:02.275Z,9.23
2018-04-13T12:58:04.084Z,9.34
2018-04-13T12:59:01.954Z,9.32
2018-04-13T13:00:01.932Z,9.25
2018-04-13T13:01:01.991Z,9.29
2018-04-13T13:02:02.049Z,9.2
2018-04-13T13:03:02.049Z,9.21
2018-04-13T13:04:01.901Z,9.33
2018-04-13T13:05:01.909Z,9.26
2018-04-13T13:06:01.878Z,9.32
2018-04-13T13:07:01.875Z,9.31
2018-04-13T13:08:02.248Z,9.36
2018-04-13T13:09:02.006Z,9.35
2018-04-13T13:10:02.188Z,9.33
2018-04-13T13:11:01.868Z,9.31
2018-04-13T13:12:01.940Z,9.4
2018-04-13T13:13:01.881Z,9.25
2018-04-13T13:14:01.874Z,9.36
2018-04-13T13:15:01.990Z,9.37
2018-04-13T13:16:01.867Z,9.34
2018-04-13T13:17:01.861Z,9.29
2018-04-13T13:18:01.897Z,9.33
2018-04-13T13:19:01.891Z,9.28
2018-04-13T13:20:01.927Z,9.32
2018-04-13T13:21:01.890Z,9.35
2018-04-13T13:22:01.870Z,9.23